Bay Terrace, New York
Current Conditions -  °F | °C
As of 11:51 AM on Friday 24 Oct 2014 (Local Time) from KLGA Reporting Station
Broken Clouds Broken Clouds  
Wind Chill: 14°   Ceiling: 3500
Heat Index: 14°   Visibility: 10mi
Dew Point:   Wind: 17mph
Humidity: 59%   Direction: 310°NW
Pressure: 29.81"   Gusts: NA
Location:  40.7825°N, 73.7809°W
Report Text: KLGA 241551Z 31015KT 10SM BKN035 BKN140 14/06 A2981 RMK AO2 SLP094 T01390061
Loading
Personal Weather Stations






























Interactive Weather Map
Tropical Storm Tracking
New forecast layout! Learn more

10-Day Weather Forecast

Advertisements
Track Severe Weather on mobile